sensor_id;sensor_type;location;lat;lon;timestamp;P1;durP1;ratioP1;P2;durP2;ratioP2
53411;SDS011;39307;52.870;13.660;2023-04-25T00:01:53;6.90;;;2.70;;
53411;SDS011;39307;52.870;13.660;2023-04-25T00:04:19;6.20;;;3.17;;
53411;SDS011;39307;52.870;13.660;2023-04-25T00:06:46;6.28;;;2.92;;
53411;SDS011;39307;52.870;13.660;2023-04-25T00:09:12;6.40;;;3.10;;
53411;SDS011;39307;52.870;13.660;2023-04-25T00:11:38;7.55;;;3.22;;
53411;SDS011;39307;52.870;13.660;2023-04-25T00:14:05;5.80;;;3.30;;
53411;SDS011;39307;52.870;13.660;2023-04-25T00:16:31;9.57;;;3.38;;
53411;SDS011;39307;52.870;13.660;2023-04-25T00:18:58;6.13;;;3.13;;
53411;SDS011;39307;52.870;13.660;2023-04-25T00:21:24;6.50;;;3.42;;
53411;SDS011;39307;52.870;13.660;2023-04-25T00:23:54;8.07;;;3.67;;
53411;SDS011;39307;52.870;13.660;2023-04-25T00:26:21;6.78;;;3.55;;
53411;SDS011;39307;52.870;13.660;2023-04-25T00:28:47;7.82;;;3.80;;
53411;SDS011;39307;52.870;13.660;2023-04-25T00:31:14;8.43;;;3.17;;
53411;SDS011;39307;52.870;13.660;2023-04-25T00:33:40;7.80;;;3.50;;
53411;SDS011;39307;52.870;13.660;2023-04-25T00:36:07;7.68;;;3.47;;
53411;SDS011;39307;52.870;13.660;2023-04-25T00:38:34;8.32;;;3.70;;
53411;SDS011;39307;52.870;13.660;2023-04-25T00:41:00;6.97;;;3.53;;
53411;SDS011;39307;52.870;13.660;2023-04-25T00:43:27;8.43;;;3.53;;
53411;SDS011;39307;52.870;13.660;2023-04-25T00:45:53;7.53;;;3.63;;
53411;SDS011;39307;52.870;13.660;2023-04-25T00:48:22;6.90;;;3.30;;
53411;SDS011;39307;52.870;13.660;2023-04-25T00:50:53;6.35;;;3.08;;
53411;SDS011;39307;52.870;13.660;2023-04-25T00:53:22;6.53;;;3.15;;
53411;SDS011;39307;52.870;13.660;2023-04-25T00:55:50;6.40;;;3.10;;
53411;SDS011;39307;52.870;13.660;2023-04-25T00:58:17;6.43;;;2.90;;
53411;SDS011;39307;52.870;13.660;2023-04-25T01:00:47;6.95;;;3.20;;
53411;SDS011;39307;52.870;13.660;2023-04-25T01:03:14;8.88;;;3.53;;
53411;SDS011;39307;52.870;13.660;2023-04-25T01:05:41;7.30;;;2.80;;
53411;SDS011;39307;52.870;13.660;2023-04-25T01:08:08;6.75;;;2.90;;
53411;SDS011;39307;52.870;13.660;2023-04-25T01:10:35;6.20;;;3.10;;
53411;SDS011;39307;52.870;13.660;2023-04-25T01:13:01;6.50;;;2.70;;
53411;SDS011;39307;52.870;13.660;2023-04-25T01:15:28;5.20;;;2.42;;
53411;SDS011;39307;52.870;13.660;2023-04-25T01:17:54;7.40;;;2.92;;
53411;SDS011;39307;52.870;13.660;2023-04-25T01:20:21;6.68;;;2.95;;
53411;SDS011;39307;52.870;13.660;2023-04-25T01:22:48;7.73;;;2.53;;
53411;SDS011;39307;52.870;13.660;2023-04-25T01:25:18;6.47;;;2.35;;
53411;SDS011;39307;52.870;13.660;2023-04-25T01:27:45;6.45;;;2.40;;
53411;SDS011;39307;52.870;13.660;2023-04-25T01:30:11;7.20;;;2.85;;
53411;SDS011;39307;52.870;13.660;2023-04-25T01:32:38;6.03;;;2.70;;
53411;SDS011;39307;52.870;13.660;2023-04-25T01:35:07;6.82;;;2.70;;
53411;SDS011;39307;52.870;13.660;2023-04-25T01:37:41;6.80;;;2.72;;
53411;SDS011;39307;52.870;13.660;2023-04-25T01:40:09;5.22;;;2.60;;
53411;SDS011;39307;52.870;13.660;2023-04-25T01:42:37;5.28;;;2.58;;
53411;SDS011;39307;52.870;13.660;2023-04-25T01:45:05;6.70;;;2.65;;
53411;SDS011;39307;52.870;13.660;2023-04-25T01:47:31;6.07;;;2.83;;
53411;SDS011;39307;52.870;13.660;2023-04-25T01:49:58;8.23;;;2.95;;
53411;SDS011;39307;52.870;13.660;2023-04-25T01:52:24;6.95;;;2.75;;
53411;SDS011;39307;52.870;13.660;2023-04-25T01:54:50;8.13;;;3.15;;
53411;SDS011;39307;52.870;13.660;2023-04-25T01:57:17;8.13;;;3.17;;
53411;SDS011;39307;52.870;13.660;2023-04-25T01:59:43;8.93;;;3.58;;
53411;SDS011;39307;52.870;13.660;2023-04-25T02:02:10;9.70;;;3.20;;
53411;SDS011;39307;52.870;13.660;2023-04-25T02:04:36;7.80;;;3.30;;
53411;SDS011;39307;52.870;13.660;2023-04-25T02:07:03;9.18;;;3.58;;
53411;SDS011;39307;52.870;13.660;2023-04-25T02:09:29;8.77;;;3.35;;
53411;SDS011;39307;52.870;13.660;2023-04-25T02:11:55;8.30;;;3.55;;
53411;SDS011;39307;52.870;13.660;2023-04-25T02:14:22;7.97;;;3.33;;
53411;SDS011;39307;52.870;13.660;2023-04-25T02:16:49;9.80;;;3.30;;
53411;SDS011;39307;52.870;13.660;2023-04-25T02:19:15;9.00;;;3.28;;
53411;SDS011;39307;52.870;13.660;2023-04-25T02:21:41;8.43;;;3.13;;
53411;SDS011;39307;52.870;13.660;2023-04-25T02:24:07;10.47;;;3.60;;
53411;SDS011;39307;52.870;13.660;2023-04-25T02:26:34;7.93;;;3.20;;
53411;SDS011;39307;52.870;13.660;2023-04-25T02:29:00;11.07;;;3.63;;
53411;SDS011;39307;52.870;13.660;2023-04-25T02:31:26;9.45;;;3.78;;
53411;SDS011;39307;52.870;13.660;2023-04-25T02:33:52;11.13;;;4.37;;
53411;SDS011;39307;52.870;13.660;2023-04-25T02:36:19;9.60;;;4.20;;
53411;SDS011;39307;52.870;13.660;2023-04-25T02:38:45;8.15;;;3.33;;
53411;SDS011;39307;52.870;13.660;2023-04-25T02:41:11;9.43;;;3.95;;
53411;SDS011;39307;52.870;13.660;2023-04-25T02:43:37;9.35;;;3.60;;
53411;SDS011;39307;52.870;13.660;2023-04-25T02:46:04;8.02;;;3.67;;
53411;SDS011;39307;52.870;13.660;2023-04-25T02:48:30;7.70;;;3.25;;
53411;SDS011;39307;52.870;13.660;2023-04-25T02:50:56;10.20;;;4.00;;
53411;SDS011;39307;52.870;13.660;2023-04-25T02:53:22;7.75;;;3.63;;
53411;SDS011;39307;52.870;13.660;2023-04-25T02:55:48;11.05;;;4.13;;
53411;SDS011;39307;52.870;13.660;2023-04-25T02:58:14;9.60;;;3.90;;
53411;SDS011;39307;52.870;13.660;2023-04-25T03:00:41;9.63;;;3.85;;
53411;SDS011;39307;52.870;13.660;2023-04-25T03:03:07;10.32;;;3.80;;
53411;SDS011;39307;52.870;13.660;2023-04-25T03:05:33;9.63;;;3.50;;
53411;SDS011;39307;52.870;13.660;2023-04-25T03:08:00;10.13;;;3.83;;
53411;SDS011;39307;52.870;13.660;2023-04-25T03:10:26;10.43;;;3.88;;
53411;SDS011;39307;52.870;13.660;2023-04-25T03:12:52;8.87;;;3.87;;
53411;SDS011;39307;52.870;13.660;2023-04-25T03:15:18;9.23;;;3.77;;
53411;SDS011;39307;52.870;13.660;2023-04-25T03:17:44;10.07;;;3.78;;
53411;SDS011;39307;52.870;13.660;2023-04-25T03:20:10;8.32;;;3.85;;
53411;SDS011;39307;52.870;13.660;2023-04-25T03:22:37;7.55;;;3.88;;
53411;SDS011;39307;52.870;13.660;2023-04-25T03:25:03;8.80;;;3.53;;
53411;SDS011;39307;52.870;13.660;2023-04-25T03:27:30;7.57;;;3.72;;
53411;SDS011;39307;52.870;13.660;2023-04-25T03:29:57;9.63;;;4.00;;
53411;SDS011;39307;52.870;13.660;2023-04-25T03:32:23;9.07;;;3.50;;
53411;SDS011;39307;52.870;13.660;2023-04-25T03:34:50;10.18;;;3.90;;
53411;SDS011;39307;52.870;13.660;2023-04-25T03:37:16;9.93;;;3.63;;
53411;SDS011;39307;52.870;13.660;2023-04-25T03:39:42;9.07;;;3.80;;
53411;SDS011;39307;52.870;13.660;2023-04-25T03:42:08;9.05;;;3.60;;
53411;SDS011;39307;52.870;13.660;2023-04-25T03:44:35;8.55;;;3.35;;
53411;SDS011;39307;52.870;13.660;2023-04-25T03:47:01;9.05;;;4.10;;
53411;SDS011;39307;52.870;13.660;2023-04-25T03:49:27;9.05;;;3.78;;
53411;SDS011;39307;52.870;13.660;2023-04-25T03:51:53;10.77;;;3.95;;
53411;SDS011;39307;52.870;13.660;2023-04-25T03:54:20;9.63;;;3.92;;
53411;SDS011;39307;52.870;13.660;2023-04-25T03:56:46;10.73;;;4.25;;
53411;SDS011;39307;52.870;13.660;2023-04-25T03:59:12;10.85;;;3.70;;
53411;SDS011;39307;52.870;13.660;2023-04-25T04:01:38;10.75;;;3.80;;
53411;SDS011;39307;52.870;13.660;2023-04-25T04:04:04;11.10;;;3.80;;
53411;SDS011;39307;52.870;13.660;2023-04-25T04:06:31;9.00;;;3.92;;
53411;SDS011;39307;52.870;13.660;2023-04-25T04:08:57;9.93;;;3.97;;
53411;SDS011;39307;52.870;13.660;2023-04-25T04:11:23;9.75;;;4.03;;
53411;SDS011;39307;52.870;13.660;2023-04-25T04:13:49;8.70;;;4.07;;
53411;SDS011;39307;52.870;13.660;2023-04-25T04:16:16;9.65;;;4.35;;
53411;SDS011;39307;52.870;13.660;2023-04-25T04:18:42;10.13;;;4.35;;
53411;SDS011;39307;52.870;13.660;2023-04-25T04:21:08;8.70;;;3.80;;
53411;SDS011;39307;52.870;13.660;2023-04-25T04:23:35;9.77;;;4.10;;
53411;SDS011;39307;52.870;13.660;2023-04-25T04:26:01;8.80;;;4.03;;
53411;SDS011;39307;52.870;13.660;2023-04-25T04:28:27;11.87;;;4.33;;
53411;SDS011;39307;52.870;13.660;2023-04-25T04:30:53;10.05;;;4.13;;
53411;SDS011;39307;52.870;13.660;2023-04-25T04:33:19;9.48;;;3.75;;
53411;SDS011;39307;52.870;13.660;2023-04-25T04:35:45;8.20;;;3.88;;
53411;SDS011;39307;52.870;13.660;2023-04-25T04:38:12;10.23;;;4.07;;
53411;SDS011;39307;52.870;13.660;2023-04-25T04:40:39;9.90;;;4.22;;
53411;SDS011;39307;52.870;13.660;2023-04-25T04:43:05;10.07;;;4.05;;
53411;SDS011;39307;52.870;13.660;2023-04-25T04:45:32;10.77;;;4.45;;
53411;SDS011;39307;52.870;13.660;2023-04-25T04:47:58;9.73;;;4.30;;
53411;SDS011;39307;52.870;13.660;2023-04-25T04:50:24;9.48;;;3.88;;
53411;SDS011;39307;52.870;13.660;2023-04-25T04:52:50;9.60;;;4.15;;
53411;SDS011;39307;52.870;13.660;2023-04-25T04:55:16;9.70;;;4.45;;
53411;SDS011;39307;52.870;13.660;2023-04-25T04:57:42;9.45;;;4.25;;
53411;SDS011;39307;52.870;13.660;2023-04-25T05:00:09;9.43;;;4.00;;
53411;SDS011;39307;52.870;13.660;2023-04-25T05:02:37;9.33;;;3.80;;
53411;SDS011;39307;52.870;13.660;2023-04-25T05:05:04;11.13;;;4.07;;
53411;SDS011;39307;52.870;13.660;2023-04-25T05:07:31;11.10;;;4.25;;
53411;SDS011;39307;52.870;13.660;2023-04-25T05:09:57;8.98;;;4.13;;
53411;SDS011;39307;52.870;13.660;2023-04-25T05:12:23;9.88;;;3.97;;
53411;SDS011;39307;52.870;13.660;2023-04-25T05:14:50;9.13;;;4.38;;
53411;SDS011;39307;52.870;13.660;2023-04-25T05:17:16;7.83;;;3.73;;
53411;SDS011;39307;52.870;13.660;2023-04-25T05:19:42;11.07;;;4.37;;
53411;SDS011;39307;52.870;13.660;2023-04-25T05:22:08;8.55;;;3.63;;
53411;SDS011;39307;52.870;13.660;2023-04-25T05:24:34;8.48;;;3.95;;
53411;SDS011;39307;52.870;13.660;2023-04-25T05:27:00;9.02;;;4.13;;
53411;SDS011;39307;52.870;13.660;2023-04-25T05:29:27;9.10;;;4.10;;
53411;SDS011;39307;52.870;13.660;2023-04-25T05:31:53;12.50;;;4.35;;
53411;SDS011;39307;52.870;13.660;2023-04-25T05:34:19;10.68;;;4.50;;
53411;SDS011;39307;52.870;13.660;2023-04-25T05:36:45;9.82;;;4.35;;
53411;SDS011;39307;52.870;13.660;2023-04-25T05:39:11;12.02;;;4.20;;
53411;SDS011;39307;52.870;13.660;2023-04-25T05:41:37;10.00;;;4.40;;
53411;SDS011;39307;52.870;13.660;2023-04-25T05:44:04;9.13;;;4.03;;
53411;SDS011;39307;52.870;13.660;2023-04-25T05:46:30;9.68;;;4.13;;
53411;SDS011;39307;52.870;13.660;2023-04-25T05:48:56;8.07;;;3.85;;
53411;SDS011;39307;52.870;13.660;2023-04-25T05:51:23;7.93;;;3.90;;
53411;SDS011;39307;52.870;13.660;2023-04-25T05:53:49;8.15;;;3.72;;
53411;SDS011;39307;52.870;13.660;2023-04-25T05:56:15;8.75;;;3.90;;
53411;SDS011;39307;52.870;13.660;2023-04-25T05:58:41;8.65;;;3.88;;
53411;SDS011;39307;52.870;13.660;2023-04-25T06:01:07;8.73;;;4.20;;
53411;SDS011;39307;52.870;13.660;2023-04-25T06:03:34;10.15;;;4.00;;
53411;SDS011;39307;52.870;13.660;2023-04-25T06:06:00;9.50;;;4.00;;
53411;SDS011;39307;52.870;13.660;2023-04-25T06:08:26;9.75;;;3.72;;
53411;SDS011;39307;52.870;13.660;2023-04-25T06:10:52;9.63;;;4.13;;
53411;SDS011;39307;52.870;13.660;2023-04-25T06:13:18;7.28;;;3.72;;
53411;SDS011;39307;52.870;13.660;2023-04-25T06:15:45;8.93;;;3.80;;
53411;SDS011;39307;52.870;13.660;2023-04-25T06:18:11;9.05;;;3.90;;
53411;SDS011;39307;52.870;13.660;2023-04-25T06:20:37;6.70;;;3.42;;
53411;SDS011;39307;52.870;13.660;2023-04-25T06:23:03;8.02;;;4.05;;
53411;SDS011;39307;52.870;13.660;2023-04-25T06:25:29;8.33;;;3.70;;
53411;SDS011;39307;52.870;13.660;2023-04-25T06:27:56;8.70;;;3.95;;
53411;SDS011;39307;52.870;13.660;2023-04-25T06:30:22;9.00;;;3.95;;
53411;SDS011;39307;52.870;13.660;2023-04-25T06:32:48;7.18;;;3.53;;
53411;SDS011;39307;52.870;13.660;2023-04-25T06:35:14;8.98;;;3.50;;
53411;SDS011;39307;52.870;13.660;2023-04-25T06:37:41;7.35;;;3.80;;
53411;SDS011;39307;52.870;13.660;2023-04-25T06:40:07;8.38;;;3.72;;
53411;SDS011;39307;52.870;13.660;2023-04-25T06:42:34;8.85;;;4.00;;
53411;SDS011;39307;52.870;13.660;2023-04-25T06:45:00;7.68;;;3.35;;
53411;SDS011;39307;52.870;13.660;2023-04-25T06:47:26;9.55;;;3.70;;
53411;SDS011;39307;52.870;13.660;2023-04-25T06:49:52;8.35;;;3.80;;
53411;SDS011;39307;52.870;13.660;2023-04-25T06:52:18;9.02;;;4.05;;
53411;SDS011;39307;52.870;13.660;2023-04-25T06:54:44;8.90;;;3.60;;
53411;SDS011;39307;52.870;13.660;2023-04-25T06:57:11;8.00;;;3.77;;
53411;SDS011;39307;52.870;13.660;2023-04-25T06:59:38;8.95;;;3.85;;
53411;SDS011;39307;52.870;13.660;2023-04-25T07:02:05;8.20;;;3.58;;
53411;SDS011;39307;52.870;13.660;2023-04-25T07:04:31;8.37;;;4.07;;
53411;SDS011;39307;52.870;13.660;2023-04-25T07:06:57;8.93;;;3.83;;
53411;SDS011;39307;52.870;13.660;2023-04-25T07:09:24;7.90;;;4.05;;
53411;SDS011;39307;52.870;13.660;2023-04-25T07:11:50;11.73;;;4.40;;
53411;SDS011;39307;52.870;13.660;2023-04-25T07:14:16;9.88;;;4.55;;
53411;SDS011;39307;52.870;13.660;2023-04-25T07:16:43;8.65;;;4.43;;
53411;SDS011;39307;52.870;13.660;2023-04-25T07:19:09;9.20;;;4.30;;
53411;SDS011;39307;52.870;13.660;2023-04-25T07:21:35;9.82;;;4.53;;
53411;SDS011;39307;52.870;13.660;2023-04-25T07:24:01;9.98;;;4.40;;
53411;SDS011;39307;52.870;13.660;2023-04-25T07:26:28;9.10;;;4.60;;
53411;SDS011;39307;52.870;13.660;2023-04-25T07:28:54;10.00;;;4.38;;
53411;SDS011;39307;52.870;13.660;2023-04-25T07:31:21;9.30;;;4.32;;
53411;SDS011;39307;52.870;13.660;2023-04-25T07:33:48;10.77;;;4.78;;
53411;SDS011;39307;52.870;13.660;2023-04-25T07:36:14;9.57;;;4.65;;
53411;SDS011;39307;52.870;13.660;2023-04-25T07:38:40;8.83;;;4.73;;
53411;SDS011;39307;52.870;13.660;2023-04-25T07:41:07;9.45;;;4.43;;
53411;SDS011;39307;52.870;13.660;2023-04-25T07:43:33;11.40;;;4.70;;
53411;SDS011;39307;52.870;13.660;2023-04-25T07:45:59;13.05;;;5.35;;
53411;SDS011;39307;52.870;13.660;2023-04-25T07:48:25;10.30;;;4.80;;
53411;SDS011;39307;52.870;13.660;2023-04-25T07:50:52;12.55;;;4.88;;
53411;SDS011;39307;52.870;13.660;2023-04-25T07:53:18;14.10;;;5.28;;
53411;SDS011;39307;52.870;13.660;2023-04-25T07:55:44;13.82;;;4.82;;
53411;SDS011;39307;52.870;13.660;2023-04-25T07:58:10;13.82;;;5.18;;
53411;SDS011;39307;52.870;13.660;2023-04-25T08:00:37;16.70;;;5.47;;
53411;SDS011;39307;52.870;13.660;2023-04-25T08:03:03;12.90;;;5.10;;
53411;SDS011;39307;52.870;13.660;2023-04-25T08:05:29;12.23;;;4.72;;
53411;SDS011;39307;52.870;13.660;2023-04-25T08:07:55;19.58;;;5.30;;
53411;SDS011;39307;52.870;13.660;2023-04-25T08:10:22;16.75;;;5.47;;
53411;SDS011;39307;52.870;13.660;2023-04-25T08:12:48;16.27;;;5.07;;
53411;SDS011;39307;52.870;13.660;2023-04-25T08:15:14;17.48;;;5.72;;
53411;SDS011;39307;52.870;13.660;2023-04-25T08:17:41;18.42;;;5.88;;
53411;SDS011;39307;52.870;13.660;2023-04-25T08:20:07;18.67;;;5.22;;
53411;SDS011;39307;52.870;13.660;2023-04-25T08:22:33;20.03;;;5.47;;
53411;SDS011;39307;52.870;13.660;2023-04-25T08:25:00;15.63;;;5.07;;
53411;SDS011;39307;52.870;13.660;2023-04-25T08:27:26;19.73;;;4.85;;
53411;SDS011;39307;52.870;13.660;2023-04-25T08:29:52;22.23;;;5.93;;
53411;SDS011;39307;52.870;13.660;2023-04-25T08:32:18;19.63;;;5.47;;
53411;SDS011;39307;52.870;13.660;2023-04-25T08:34:45;20.05;;;5.78;;
53411;SDS011;39307;52.870;13.660;2023-04-25T08:37:11;22.80;;;5.80;;
53411;SDS011;39307;52.870;13.660;2023-04-25T08:39:38;21.30;;;5.60;;
53411;SDS011;39307;52.870;13.660;2023-04-25T08:42:05;14.73;;;4.85;;
53411;SDS011;39307;52.870;13.660;2023-04-25T08:44:33;18.35;;;4.95;;
53411;SDS011;39307;52.870;13.660;2023-04-25T08:46:59;19.77;;;5.05;;
53411;SDS011;39307;52.870;13.660;2023-04-25T08:49:28;19.30;;;5.32;;
53411;SDS011;39307;52.870;13.660;2023-04-25T08:51:59;20.80;;;5.47;;
53411;SDS011;39307;52.870;13.660;2023-04-25T08:54:26;18.03;;;5.17;;
53411;SDS011;39307;52.870;13.660;2023-04-25T08:56:53;22.45;;;5.70;;
53411;SDS011;39307;52.870;13.660;2023-04-25T08:59:20;18.30;;;4.90;;
53411;SDS011;39307;52.870;13.660;2023-04-25T09:01:49;21.60;;;5.82;;
53411;SDS011;39307;52.870;13.660;2023-04-25T09:04:15;16.63;;;5.37;;
53411;SDS011;39307;52.870;13.660;2023-04-25T09:06:43;17.02;;;4.80;;
53411;SDS011;39307;52.870;13.660;2023-04-25T09:09:10;17.88;;;5.32;;
53411;SDS011;39307;52.870;13.660;2023-04-25T09:11:36;21.58;;;5.10;;
53411;SDS011;39307;52.870;13.660;2023-04-25T09:14:16;18.55;;;4.80;;
53411;SDS011;39307;52.870;13.660;2023-04-25T09:19:27;16.38;;;4.80;;
53411;SDS011;39307;52.870;13.660;2023-04-25T09:21:55;15.40;;;4.60;;
53411;SDS011;39307;52.870;13.660;2023-04-25T09:27:12;13.55;;;4.28;;
53411;SDS011;39307;52.870;13.660;2023-04-25T09:29:46;15.43;;;4.30;;
53411;SDS011;39307;52.870;13.660;2023-04-25T09:32:17;13.50;;;4.50;;
53411;SDS011;39307;52.870;13.660;2023-04-25T09:34:49;17.77;;;4.83;;
53411;SDS011;39307;52.870;13.660;2023-04-25T09:37:20;16.60;;;4.47;;
53411;SDS011;39307;52.870;13.660;2023-04-25T09:39:48;13.55;;;4.18;;
53411;SDS011;39307;52.870;13.660;2023-04-25T09:42:16;13.30;;;4.05;;
53411;SDS011;39307;52.870;13.660;2023-04-25T09:44:43;13.43;;;3.97;;
53411;SDS011;39307;52.870;13.660;2023-04-25T09:47:11;12.20;;;3.93;;
53411;SDS011;39307;52.870;13.660;2023-04-25T09:49:41;12.00;;;3.08;;
53411;SDS011;39307;52.870;13.660;2023-04-25T09:52:09;9.95;;;2.92;;
53411;SDS011;39307;52.870;13.660;2023-04-25T09:54:40;11.27;;;2.83;;
53411;SDS011;39307;52.870;13.660;2023-04-25T09:57:18;9.13;;;2.72;;
53411;SDS011;39307;52.870;13.660;2023-04-25T09:59:50;9.65;;;2.88;;
53411;SDS011;39307;52.870;13.660;2023-04-25T10:02:18;10.38;;;2.75;;
53411;SDS011;39307;52.870;13.660;2023-04-25T10:04:49;9.50;;;2.93;;
53411;SDS011;39307;52.870;13.660;2023-04-25T10:07:20;9.48;;;2.60;;
53411;SDS011;39307;52.870;13.660;2023-04-25T10:09:54;10.23;;;2.95;;
53411;SDS011;39307;52.870;13.660;2023-04-25T10:12:26;9.38;;;2.80;;
53411;SDS011;39307;52.870;13.660;2023-04-25T10:14:52;10.43;;;2.80;;
53411;SDS011;39307;52.870;13.660;2023-04-25T10:17:20;7.65;;;2.47;;
53411;SDS011;39307;52.870;13.660;2023-04-25T10:19:47;12.63;;;2.53;;
53411;SDS011;39307;52.870;13.660;2023-04-25T10:24:39;10.32;;;3.17;;
53411;SDS011;39307;52.870;13.660;2023-04-25T10:27:06;11.00;;;3.25;;
53411;SDS011;39307;52.870;13.660;2023-04-25T10:29:32;9.65;;;2.92;;
53411;SDS011;39307;52.870;13.660;2023-04-25T10:31:58;11.27;;;2.85;;
53411;SDS011;39307;52.870;13.660;2023-04-25T10:34:37;8.52;;;2.80;;
53411;SDS011;39307;52.870;13.660;2023-04-25T10:37:08;9.05;;;2.78;;
53411;SDS011;39307;52.870;13.660;2023-04-25T10:39:36;9.43;;;2.90;;
53411;SDS011;39307;52.870;13.660;2023-04-25T10:42:07;11.70;;;2.90;;
53411;SDS011;39307;52.870;13.660;2023-04-25T10:44:33;11.27;;;3.33;;
53411;SDS011;39307;52.870;13.660;2023-04-25T10:47:01;9.85;;;2.83;;
53411;SDS011;39307;52.870;13.660;2023-04-25T10:54:53;11.05;;;2.97;;
53411;SDS011;39307;52.870;13.660;2023-04-25T10:57:28;11.85;;;3.00;;
53411;SDS011;39307;52.870;13.660;2023-04-25T11:00:04;10.88;;;3.15;;
53411;SDS011;39307;52.870;13.660;2023-04-25T11:02:44;11.10;;;2.95;;
53411;SDS011;39307;52.870;13.660;2023-04-25T11:05:29;8.83;;;2.57;;
53411;SDS011;39307;52.870;13.660;2023-04-25T11:08:00;9.23;;;2.58;;
53411;SDS011;39307;52.870;13.660;2023-04-25T11:10:28;10.02;;;2.75;;
53411;SDS011;39307;52.870;13.660;2023-04-25T11:12:55;9.50;;;2.40;;
53411;SDS011;39307;52.870;13.660;2023-04-25T11:15:22;8.95;;;2.53;;
53411;SDS011;39307;52.870;13.660;2023-04-25T11:17:52;9.52;;;2.50;;
53411;SDS011;39307;52.870;13.660;2023-04-25T11:20:19;10.90;;;2.63;;
53411;SDS011;39307;52.870;13.660;2023-04-25T11:22:46;9.18;;;2.47;;
53411;SDS011;39307;52.870;13.660;2023-04-25T11:25:14;8.93;;;2.55;;
53411;SDS011;39307;52.870;13.660;2023-04-25T11:27:54;10.23;;;2.90;;
53411;SDS011;39307;52.870;13.660;2023-04-25T11:30:23;9.52;;;2.63;;
53411;SDS011;39307;52.870;13.660;2023-04-25T11:32:50;8.97;;;2.40;;
53411;SDS011;39307;52.870;13.660;2023-04-25T11:35:17;8.93;;;2.88;;
53411;SDS011;39307;52.870;13.660;2023-04-25T11:37:44;9.55;;;2.55;;
53411;SDS011;39307;52.870;13.660;2023-04-25T11:40:10;9.45;;;2.38;;
53411;SDS011;39307;52.870;13.660;2023-04-25T11:42:43;9.65;;;2.85;;
53411;SDS011;39307;52.870;13.660;2023-04-25T11:45:11;8.73;;;2.95;;
53411;SDS011;39307;52.870;13.660;2023-04-25T11:47:38;7.80;;;2.40;;
53411;SDS011;39307;52.870;13.660;2023-04-25T11:50:06;7.35;;;2.05;;
53411;SDS011;39307;52.870;13.660;2023-04-25T11:52:43;8.40;;;2.38;;
53411;SDS011;39307;52.870;13.660;2023-04-25T11:57:41;6.53;;;2.17;;
53411;SDS011;39307;52.870;13.660;2023-04-25T12:00:12;8.13;;;2.30;;
53411;SDS011;39307;52.870;13.660;2023-04-25T12:02:43;9.27;;;2.70;;
53411;SDS011;39307;52.870;13.660;2023-04-25T12:05:11;6.65;;;2.15;;
53411;SDS011;39307;52.870;13.660;2023-04-25T12:07:38;7.82;;;2.15;;
53411;SDS011;39307;52.870;13.660;2023-04-25T12:10:11;8.23;;;2.65;;
53411;SDS011;39307;52.870;13.660;2023-04-25T12:12:43;8.32;;;2.40;;
53411;SDS011;39307;52.870;13.660;2023-04-25T12:15:13;10.65;;;2.53;;
53411;SDS011;39307;52.870;13.660;2023-04-25T12:17:44;8.32;;;2.42;;
53411;SDS011;39307;52.870;13.660;2023-04-25T12:20:13;10.18;;;2.58;;
53411;SDS011;39307;52.870;13.660;2023-04-25T12:22:47;9.23;;;2.35;;
53411;SDS011;39307;52.870;13.660;2023-04-25T12:25:14;11.75;;;2.90;;
53411;SDS011;39307;52.870;13.660;2023-04-25T12:28:11;9.23;;;2.40;;
53411;SDS011;39307;52.870;13.660;2023-04-25T12:30:58;8.05;;;2.40;;
53411;SDS011;39307;52.870;13.660;2023-04-25T12:33:29;10.05;;;2.80;;
53411;SDS011;39307;52.870;13.660;2023-04-25T12:35:58;7.78;;;2.35;;
53411;SDS011;39307;52.870;13.660;2023-04-25T12:40:53;8.57;;;2.63;;
53411;SDS011;39307;52.870;13.660;2023-04-25T12:43:19;7.35;;;2.50;;
53411;SDS011;39307;52.870;13.660;2023-04-25T12:45:54;9.23;;;2.78;;
53411;SDS011;39307;52.870;13.660;2023-04-25T12:48:21;9.88;;;2.30;;
53411;SDS011;39307;52.870;13.660;2023-04-25T12:50:48;10.18;;;2.67;;
53411;SDS011;39307;52.870;13.660;2023-04-25T12:53:19;8.27;;;2.60;;
53411;SDS011;39307;52.870;13.660;2023-04-25T12:55:46;10.33;;;2.70;;
53411;SDS011;39307;52.870;13.660;2023-04-25T12:58:17;10.30;;;2.38;;
53411;SDS011;39307;52.870;13.660;2023-04-25T13:00:44;8.98;;;2.50;;
53411;SDS011;39307;52.870;13.660;2023-04-25T13:03:11;9.23;;;2.63;;
53411;SDS011;39307;52.870;13.660;2023-04-25T13:05:38;10.05;;;2.95;;
53411;SDS011;39307;52.870;13.660;2023-04-25T13:08:04;8.88;;;2.50;;
53411;SDS011;39307;52.870;13.660;2023-04-25T13:10:30;8.65;;;2.33;;
53411;SDS011;39307;52.870;13.660;2023-04-25T13:12:57;10.02;;;2.65;;
53411;SDS011;39307;52.870;13.660;2023-04-25T13:15:23;8.77;;;2.60;;
53411;SDS011;39307;52.870;13.660;2023-04-25T13:17:49;9.18;;;2.42;;
53411;SDS011;39307;52.870;13.660;2023-04-25T13:20:15;8.15;;;2.40;;
53411;SDS011;39307;52.870;13.660;2023-04-25T13:22:42;10.20;;;2.60;;
53411;SDS011;39307;52.870;13.660;2023-04-25T13:25:08;9.48;;;2.65;;
53411;SDS011;39307;52.870;13.660;2023-04-25T13:27:35;9.85;;;2.60;;
53411;SDS011;39307;52.870;13.660;2023-04-25T13:30:03;9.10;;;2.58;;
53411;SDS011;39307;52.870;13.660;2023-04-25T13:32:30;9.82;;;2.55;;
53411;SDS011;39307;52.870;13.660;2023-04-25T13:34:56;9.50;;;2.60;;
53411;SDS011;39307;52.870;13.660;2023-04-25T13:37:23;6.95;;;2.30;;
53411;SDS011;39307;52.870;13.660;2023-04-25T13:39:49;9.70;;;2.47;;
53411;SDS011;39307;52.870;13.660;2023-04-25T13:42:16;9.75;;;2.70;;
53411;SDS011;39307;52.870;13.660;2023-04-25T13:44:42;7.15;;;2.30;;
53411;SDS011;39307;52.870;13.660;2023-04-25T13:47:08;9.00;;;2.33;;
53411;SDS011;39307;52.870;13.660;2023-04-25T13:49:34;8.13;;;2.25;;
53411;SDS011;39307;52.870;13.660;2023-04-25T13:52:00;7.70;;;2.67;;
53411;SDS011;39307;52.870;13.660;2023-04-25T13:54:27;8.17;;;2.17;;
53411;SDS011;39307;52.870;13.660;2023-04-25T13:56:53;8.57;;;2.55;;
53411;SDS011;39307;52.870;13.660;2023-04-25T13:59:19;9.05;;;2.28;;
53411;SDS011;39307;52.870;13.660;2023-04-25T14:01:46;7.20;;;2.00;;
53411;SDS011;39307;52.870;13.660;2023-04-25T14:04:12;11.40;;;3.47;;
53411;SDS011;39307;52.870;13.660;2023-04-25T14:06:38;8.25;;;2.58;;
53411;SDS011;39307;52.870;13.660;2023-04-25T14:09:04;8.53;;;2.73;;
53411;SDS011;39307;52.870;13.660;2023-04-25T14:11:31;9.45;;;2.28;;
53411;SDS011;39307;52.870;13.660;2023-04-25T14:13:58;9.13;;;2.60;;
53411;SDS011;39307;52.870;13.660;2023-04-25T14:16:24;8.97;;;2.53;;
53411;SDS011;39307;52.870;13.660;2023-04-25T14:18:50;8.87;;;2.47;;
53411;SDS011;39307;52.870;13.660;2023-04-25T14:21:16;11.70;;;3.63;;
53411;SDS011;39307;52.870;13.660;2023-04-25T14:23:42;10.38;;;3.13;;
53411;SDS011;39307;52.870;13.660;2023-04-25T14:26:09;10.98;;;4.82;;
53411;SDS011;39307;52.870;13.660;2023-04-25T14:28:35;13.07;;;4.97;;
53411;SDS011;39307;52.870;13.660;2023-04-25T14:31:02;8.77;;;2.53;;
53411;SDS011;39307;52.870;13.660;2023-04-25T14:33:28;9.50;;;2.50;;
53411;SDS011;39307;52.870;13.660;2023-04-25T14:35:54;11.88;;;2.72;;
53411;SDS011;39307;52.870;13.660;2023-04-25T14:38:20;11.07;;;3.20;;
53411;SDS011;39307;52.870;13.660;2023-04-25T14:40:47;9.20;;;2.65;;
53411;SDS011;39307;52.870;13.660;2023-04-25T14:43:13;8.68;;;3.50;;
53411;SDS011;39307;52.870;13.660;2023-04-25T14:45:39;10.70;;;2.50;;
53411;SDS011;39307;52.870;13.660;2023-04-25T14:48:05;8.43;;;2.40;;
53411;SDS011;39307;52.870;13.660;2023-04-25T14:50:31;8.65;;;2.30;;